Terminal Aerodrome Forecast
Issued by NWS

Home | Current Version | Previous Version | Text Only | Print | Product List | Glossary On
Versions: 1 2 3 4 5 6 7 8 9 10 11 12 13 14 15 16 17 18 19 20
000
FTUS44 KCRP 241144
TAFLRD
TAF
KLRD 241144Z 2412/2512 09004KT 6SM BR OVC012
     FM241600 19006KT P6SM SCT015 BKN024
     FM241900 32007KT P6SM BKN100
     FM250100 02009KT P6SM VCSH SCT018 BKN100 PROB30 2508/2512 TSRA
      BKN030CB=

USA.gov is the U.S. government's official web portal to all federal, state and local government web resources and services.